sensor_id;sensor_type;location;lat;lon;timestamp;temperature;humidity
40738;DHT22;54759;48.094;-1.628;2023-02-15T00:02:14;20.60;42.70
40738;DHT22;54759;48.094;-1.628;2023-02-15T00:05:16;20.60;42.90
40738;DHT22;54759;48.094;-1.628;2023-02-15T00:08:17;20.80;43.00
40738;DHT22;54759;48.094;-1.628;2023-02-15T00:11:18;21.10;43.20
40738;DHT22;54759;48.094;-1.628;2023-02-15T00:14:40;20.90;43.00
40738;DHT22;54759;48.094;-1.628;2023-02-15T00:17:41;21.00;43.20
40738;DHT22;54759;48.094;-1.628;2023-02-15T00:20:43;20.70;42.90
40738;DHT22;54759;48.094;-1.628;2023-02-15T00:23:44;20.80;42.90
40738;DHT22;54759;48.094;-1.628;2023-02-15T00:26:46;21.60;43.30
40738;DHT22;54759;48.094;-1.628;2023-02-15T00:29:47;21.00;42.80
40738;DHT22;54759;48.094;-1.628;2023-02-15T00:32:48;20.60;42.90
40738;DHT22;54759;48.094;-1.628;2023-02-15T00:35:55;20.80;42.90
40738;DHT22;54759;48.094;-1.628;2023-02-15T00:38:57;20.50;42.60
40738;DHT22;54759;48.094;-1.628;2023-02-15T00:41:58;20.70;43.00
40738;DHT22;54759;48.094;-1.628;2023-02-15T00:44:59;20.50;42.70
40738;DHT22;54759;48.094;-1.628;2023-02-15T00:48:02;21.10;42.90
40738;DHT22;54759;48.094;-1.628;2023-02-15T00:51:04;20.60;42.90
40738;DHT22;54759;48.094;-1.628;2023-02-15T00:54:06;20.50;42.80
40738;DHT22;54759;48.094;-1.628;2023-02-15T00:57:08;21.20;43.00
40738;DHT22;54759;48.094;-1.628;2023-02-15T01:00:10;20.60;42.90
40738;DHT22;54759;48.094;-1.628;2023-02-15T01:03:12;20.50;42.60
40738;DHT22;54759;48.094;-1.628;2023-02-15T01:06:17;21.10;42.90
40738;DHT22;54759;48.094;-1.628;2023-02-15T01:09:18;20.60;42.80
40738;DHT22;54759;48.094;-1.628;2023-02-15T01:12:20;20.60;42.90
40738;DHT22;54759;48.094;-1.628;2023-02-15T01:15:21;20.70;42.90
40738;DHT22;54759;48.094;-1.628;2023-02-15T01:18:23;20.70;42.70
40738;DHT22;54759;48.094;-1.628;2023-02-15T01:21:25;20.50;42.70
40738;DHT22;54759;48.094;-1.628;2023-02-15T01:24:27;21.00;42.90
40738;DHT22;54759;48.094;-1.628;2023-02-15T01:27:28;21.30;43.10
40738;DHT22;54759;48.094;-1.628;2023-02-15T01:30:31;20.50;42.70
40738;DHT22;54759;48.094;-1.628;2023-02-15T01:33:33;20.50;42.70
40738;DHT22;54759;48.094;-1.628;2023-02-15T01:36:36;20.70;42.70
40738;DHT22;54759;48.094;-1.628;2023-02-15T01:39:37;20.70;42.80
40738;DHT22;54759;48.094;-1.628;2023-02-15T01:42:39;20.60;42.90
40738;DHT22;54759;48.094;-1.628;2023-02-15T01:45:40;20.40;42.60
40738;DHT22;54759;48.094;-1.628;2023-02-15T01:48:46;20.60;42.80
40738;DHT22;54759;48.094;-1.628;2023-02-15T01:51:48;20.30;42.60
40738;DHT22;54759;48.094;-1.628;2023-02-15T01:54:51;20.80;43.00
40738;DHT22;54759;48.094;-1.628;2023-02-15T01:57:53;21.20;43.10
40738;DHT22;54759;48.094;-1.628;2023-02-15T02:00:54;20.50;42.90
40738;DHT22;54759;48.094;-1.628;2023-02-15T02:03:59;20.80;42.80
40738;DHT22;54759;48.094;-1.628;2023-02-15T02:07:04;20.50;42.60
40738;DHT22;54759;48.094;-1.628;2023-02-15T02:10:07;20.50;42.80
40738;DHT22;54759;48.094;-1.628;2023-02-15T02:13:08;20.80;42.80
40738;DHT22;54759;48.094;-1.628;2023-02-15T02:16:11;20.40;42.80
40738;DHT22;54759;48.094;-1.628;2023-02-15T02:19:23;20.80;42.80
40738;DHT22;54759;48.094;-1.628;2023-02-15T02:22:39;20.70;42.60
40738;DHT22;54759;48.094;-1.628;2023-02-15T02:29:05;21.50;43.10
40738;DHT22;54759;48.094;-1.628;2023-02-15T02:35:26;20.60;42.60
40738;DHT22;54759;48.094;-1.628;2023-02-15T02:38:30;20.40;42.50
40738;DHT22;54759;48.094;-1.628;2023-02-15T02:41:37;20.70;42.60
40738;DHT22;54759;48.094;-1.628;2023-02-15T02:44:41;20.50;42.50
40738;DHT22;54759;48.094;-1.628;2023-02-15T02:47:45;20.90;42.80
40738;DHT22;54759;48.094;-1.628;2023-02-15T02:50:48;20.50;42.50
40738;DHT22;54759;48.094;-1.628;2023-02-15T02:53:51;20.60;42.70
40738;DHT22;54759;48.094;-1.628;2023-02-15T02:56:53;20.50;42.70
40738;DHT22;54759;48.094;-1.628;2023-02-15T02:59:56;20.60;42.60
40738;DHT22;54759;48.094;-1.628;2023-02-15T03:02:59;20.60;42.60
40738;DHT22;54759;48.094;-1.628;2023-02-15T03:06:07;20.60;42.60
40738;DHT22;54759;48.094;-1.628;2023-02-15T03:09:11;20.60;42.70
40738;DHT22;54759;48.094;-1.628;2023-02-15T03:12:16;20.30;42.50
40738;DHT22;54759;48.094;-1.628;2023-02-15T03:15:21;20.70;42.60
40738;DHT22;54759;48.094;-1.628;2023-02-15T03:18:25;20.30;42.40
40738;DHT22;54759;48.094;-1.628;2023-02-15T03:21:31;20.30;42.50
40738;DHT22;54759;48.094;-1.628;2023-02-15T03:24:34;20.30;42.30
40738;DHT22;54759;48.094;-1.628;2023-02-15T03:27:38;20.50;42.50
40738;DHT22;54759;48.094;-1.628;2023-02-15T03:30:42;20.70;42.60
40738;DHT22;54759;48.094;-1.628;2023-02-15T03:33:47;20.50;42.60
40738;DHT22;54759;48.094;-1.628;2023-02-15T03:36:52;20.30;42.40
40738;DHT22;54759;48.094;-1.628;2023-02-15T03:39:57;20.40;42.60
40738;DHT22;54759;48.094;-1.628;2023-02-15T03:43:21;20.50;42.60
40738;DHT22;54759;48.094;-1.628;2023-02-15T03:46:26;20.50;42.60
40738;DHT22;54759;48.094;-1.628;2023-02-15T03:49:30;20.30;42.40
40738;DHT22;54759;48.094;-1.628;2023-02-15T03:52:33;20.50;42.60
40738;DHT22;54759;48.094;-1.628;2023-02-15T03:55:35;20.30;42.50
40738;DHT22;54759;48.094;-1.628;2023-02-15T03:58:37;20.50;42.50
40738;DHT22;54759;48.094;-1.628;2023-02-15T04:01:55;20.90;42.80
40738;DHT22;54759;48.094;-1.628;2023-02-15T04:04:59;20.30;42.40
40738;DHT22;54759;48.094;-1.628;2023-02-15T04:08:01;20.50;42.70
40738;DHT22;54759;48.094;-1.628;2023-02-15T04:11:02;20.20;42.50
40738;DHT22;54759;48.094;-1.628;2023-02-15T04:14:03;20.20;42.50
40738;DHT22;54759;48.094;-1.628;2023-02-15T04:17:25;20.20;42.50
40738;DHT22;54759;48.094;-1.628;2023-02-15T04:20:26;20.30;42.60
40738;DHT22;54759;48.094;-1.628;2023-02-15T04:23:43;20.50;42.80
40738;DHT22;54759;48.094;-1.628;2023-02-15T04:26:59;20.40;42.70
40738;DHT22;54759;48.094;-1.628;2023-02-15T04:30:00;20.20;42.50
40738;DHT22;54759;48.094;-1.628;2023-02-15T04:33:02;21.10;43.10
40738;DHT22;54759;48.094;-1.628;2023-02-15T04:36:03;20.30;42.60
40738;DHT22;54759;48.094;-1.628;2023-02-15T04:39:05;20.20;42.50
40738;DHT22;54759;48.094;-1.628;2023-02-15T04:42:07;20.40;42.70
40738;DHT22;54759;48.094;-1.628;2023-02-15T04:45:08;20.30;42.70
40738;DHT22;54759;48.094;-1.628;2023-02-15T04:48:09;20.30;42.60
40738;DHT22;54759;48.094;-1.628;2023-02-15T04:51:11;20.10;42.50
40738;DHT22;54759;48.094;-1.628;2023-02-15T04:54:13;20.60;42.80
40738;DHT22;54759;48.094;-1.628;2023-02-15T04:57:14;20.70;42.70
40738;DHT22;54759;48.094;-1.628;2023-02-15T05:00:16;20.30;42.50
40738;DHT22;54759;48.094;-1.628;2023-02-15T05:03:17;20.60;42.50
40738;DHT22;54759;48.094;-1.628;2023-02-15T05:06:20;20.40;42.60
40738;DHT22;54759;48.094;-1.628;2023-02-15T05:09:22;20.50;42.60
40738;DHT22;54759;48.094;-1.628;2023-02-15T05:12:23;20.70;42.90
40738;DHT22;54759;48.094;-1.628;2023-02-15T05:15:24;20.20;42.60
40738;DHT22;54759;48.094;-1.628;2023-02-15T05:18:26;20.30;42.60
40738;DHT22;54759;48.094;-1.628;2023-02-15T05:21:27;20.30;42.50
40738;DHT22;54759;48.094;-1.628;2023-02-15T05:24:29;20.30;42.50
40738;DHT22;54759;48.094;-1.628;2023-02-15T05:27:43;21.00;42.90
40738;DHT22;54759;48.094;-1.628;2023-02-15T05:31:01;20.70;42.70
40738;DHT22;54759;48.094;-1.628;2023-02-15T05:34:03;20.30;42.40
40738;DHT22;54759;48.094;-1.628;2023-02-15T05:37:04;20.30;42.60
40738;DHT22;54759;48.094;-1.628;2023-02-15T05:40:07;20.10;42.60
40738;DHT22;54759;48.094;-1.628;2023-02-15T05:43:08;20.50;42.50
40738;DHT22;54759;48.094;-1.628;2023-02-15T05:46:09;20.30;42.50
40738;DHT22;54759;48.094;-1.628;2023-02-15T05:49:11;20.30;42.40
40738;DHT22;54759;48.094;-1.628;2023-02-15T05:52:12;20.30;42.60
40738;DHT22;54759;48.094;-1.628;2023-02-15T05:55:14;20.30;42.40
40738;DHT22;54759;48.094;-1.628;2023-02-15T05:58:16;20.70;42.60
40738;DHT22;54759;48.094;-1.628;2023-02-15T06:01:18;20.30;42.50
40738;DHT22;54759;48.094;-1.628;2023-02-15T06:04:20;20.00;42.20
40738;DHT22;54759;48.094;-1.628;2023-02-15T06:07:22;20.60;42.60
40738;DHT22;54759;48.094;-1.628;2023-02-15T06:10:23;20.10;42.40
40738;DHT22;54759;48.094;-1.628;2023-02-15T06:13:25;20.50;42.70
40738;DHT22;54759;48.094;-1.628;2023-02-15T06:16:26;21.00;42.70
40738;DHT22;54759;48.094;-1.628;2023-02-15T06:19:27;20.30;42.40
40738;DHT22;54759;48.094;-1.628;2023-02-15T06:22:29;20.10;42.30
40738;DHT22;54759;48.094;-1.628;2023-02-15T06:25:31;20.30;42.40
40738;DHT22;54759;48.094;-1.628;2023-02-15T06:28:32;21.00;42.80
40738;DHT22;54759;48.094;-1.628;2023-02-15T06:31:33;20.60;42.50
40738;DHT22;54759;48.094;-1.628;2023-02-15T06:34:35;20.10;42.20
40738;DHT22;54759;48.094;-1.628;2023-02-15T06:37:36;20.60;42.50
40738;DHT22;54759;48.094;-1.628;2023-02-15T06:40:38;20.20;42.30
40738;DHT22;54759;48.094;-1.628;2023-02-15T06:43:39;20.20;42.30
40738;DHT22;54759;48.094;-1.628;2023-02-15T06:46:41;21.10;42.60
40738;DHT22;54759;48.094;-1.628;2023-02-15T06:49:43;20.60;42.50
40738;DHT22;54759;48.094;-1.628;2023-02-15T06:52:44;20.10;42.20
40738;DHT22;54759;48.094;-1.628;2023-02-15T06:55:46;20.40;42.10
40738;DHT22;54759;48.094;-1.628;2023-02-15T06:58:47;20.80;42.40
40738;DHT22;54759;48.094;-1.628;2023-02-15T07:01:50;20.30;42.20
40738;DHT22;54759;48.094;-1.628;2023-02-15T07:04:51;20.10;42.20
40738;DHT22;54759;48.094;-1.628;2023-02-15T07:07:53;20.60;42.20
40738;DHT22;54759;48.094;-1.628;2023-02-15T07:10:55;21.20;42.70
40738;DHT22;54759;48.094;-1.628;2023-02-15T07:14:17;20.70;42.30
40738;DHT22;54759;48.094;-1.628;2023-02-15T07:17:18;21.10;42.60
40738;DHT22;54759;48.094;-1.628;2023-02-15T07:20:37;20.50;42.00
40738;DHT22;54759;48.094;-1.628;2023-02-15T07:23:39;21.10;42.20
40738;DHT22;54759;48.094;-1.628;2023-02-15T07:26:41;20.40;41.80
40738;DHT22;54759;48.094;-1.628;2023-02-15T07:29:42;21.00;42.00
40738;DHT22;54759;48.094;-1.628;2023-02-15T07:32:43;20.70;41.80
40738;DHT22;54759;48.094;-1.628;2023-02-15T07:36:00;21.40;42.20
40738;DHT22;54759;48.094;-1.628;2023-02-15T07:39:03;20.60;41.60
40738;DHT22;54759;48.094;-1.628;2023-02-15T07:42:05;21.00;41.70
40738;DHT22;54759;48.094;-1.628;2023-02-15T07:45:06;20.70;41.70
40738;DHT22;54759;48.094;-1.628;2023-02-15T07:48:08;21.30;41.70
40738;DHT22;54759;48.094;-1.628;2023-02-15T07:51:10;20.70;41.30
40738;DHT22;54759;48.094;-1.628;2023-02-15T07:54:11;21.00;41.50
40738;DHT22;54759;48.094;-1.628;2023-02-15T07:57:13;20.70;41.50
40738;DHT22;54759;48.094;-1.628;2023-02-15T08:00:15;21.40;41.80
40738;DHT22;54759;48.094;-1.628;2023-02-15T08:03:17;21.00;41.40
40738;DHT22;54759;48.094;-1.628;2023-02-15T08:06:19;21.40;41.70
40738;DHT22;54759;48.094;-1.628;2023-02-15T08:09:21;20.80;41.30
40738;DHT22;54759;48.094;-1.628;2023-02-15T08:12:23;21.40;41.70
40738;DHT22;54759;48.094;-1.628;2023-02-15T08:15:24;21.00;41.40
40738;DHT22;54759;48.094;-1.628;2023-02-15T08:18:25;21.20;41.60
40738;DHT22;54759;48.094;-1.628;2023-02-15T08:21:27;21.00;41.00
40738;DHT22;54759;48.094;-1.628;2023-02-15T08:24:29;21.20;41.20
40738;DHT22;54759;48.094;-1.628;2023-02-15T08:27:31;20.80;41.10
40738;DHT22;54759;48.094;-1.628;2023-02-15T08:30:33;21.30;41.10
40738;DHT22;54759;48.094;-1.628;2023-02-15T08:33:37;20.90;40.90
40738;DHT22;54759;48.094;-1.628;2023-02-15T08:36:38;21.20;41.10
40738;DHT22;54759;48.094;-1.628;2023-02-15T08:39:40;20.80;40.70
40738;DHT22;54759;48.094;-1.628;2023-02-15T08:42:44;21.60;41.30
40738;DHT22;54759;48.094;-1.628;2023-02-15T08:45:45;20.80;40.90
40738;DHT22;54759;48.094;-1.628;2023-02-15T08:48:47;21.60;41.10
40738;DHT22;54759;48.094;-1.628;2023-02-15T08:51:49;21.00;40.90
40738;DHT22;54759;48.094;-1.628;2023-02-15T08:54:50;21.20;40.90
40738;DHT22;54759;48.094;-1.628;2023-02-15T08:57:52;20.90;40.70
40738;DHT22;54759;48.094;-1.628;2023-02-15T09:00:56;21.60;41.20
40738;DHT22;54759;48.094;-1.628;2023-02-15T09:03:58;21.40;40.90
40738;DHT22;54759;48.094;-1.628;2023-02-15T09:07:00;21.30;40.80
40738;DHT22;54759;48.094;-1.628;2023-02-15T09:10:03;21.00;40.50
40738;DHT22;54759;48.094;-1.628;2023-02-15T09:13:04;21.40;40.90
40738;DHT22;54759;48.094;-1.628;2023-02-15T09:16:07;20.90;40.60
40738;DHT22;54759;48.094;-1.628;2023-02-15T09:19:08;21.60;41.00
40738;DHT22;54759;48.094;-1.628;2023-02-15T09:22:10;21.20;40.90
40738;DHT22;54759;48.094;-1.628;2023-02-15T09:25:11;21.50;40.70
40738;DHT22;54759;48.094;-1.628;2023-02-15T09:28:14;21.50;40.50
40738;DHT22;54759;48.094;-1.628;2023-02-15T09:31:16;21.60;40.80
40738;DHT22;54759;48.094;-1.628;2023-02-15T09:34:19;21.20;40.50
40738;DHT22;54759;48.094;-1.628;2023-02-15T09:37:20;21.60;40.70
40738;DHT22;54759;48.094;-1.628;2023-02-15T09:40:22;21.50;40.60
40738;DHT22;54759;48.094;-1.628;2023-02-15T09:43:28;21.90;40.80
40738;DHT22;54759;48.094;-1.628;2023-02-15T09:46:39;21.30;40.50
40738;DHT22;54759;48.094;-1.628;2023-02-15T09:49:47;21.80;40.80
40738;DHT22;54759;48.094;-1.628;2023-02-15T09:52:55;21.40;40.40
40738;DHT22;54759;48.094;-1.628;2023-02-15T09:56:01;21.60;41.30
40738;DHT22;54759;48.094;-1.628;2023-02-15T09:59:07;21.30;40.50
40738;DHT22;54759;48.094;-1.628;2023-02-15T10:02:17;21.80;40.70
40738;DHT22;54759;48.094;-1.628;2023-02-15T10:05:24;21.40;40.50
40738;DHT22;54759;48.094;-1.628;2023-02-15T10:08:31;21.90;40.80
40738;DHT22;54759;48.094;-1.628;2023-02-15T10:11:44;21.40;40.50
40738;DHT22;54759;48.094;-1.628;2023-02-15T10:14:56;21.70;40.70
40738;DHT22;54759;48.094;-1.628;2023-02-15T10:18:06;21.30;40.40
40738;DHT22;54759;48.094;-1.628;2023-02-15T10:21:16;21.80;39.90
40738;DHT22;54759;48.094;-1.628;2023-02-15T10:24:28;21.30;40.30
40738;DHT22;54759;48.094;-1.628;2023-02-15T10:27:32;22.00;40.70
40738;DHT22;54759;48.094;-1.628;2023-02-15T10:30:40;21.30;40.40
40738;DHT22;54759;48.094;-1.628;2023-02-15T10:33:43;21.80;40.70
40738;DHT22;54759;48.094;-1.628;2023-02-15T10:36:51;21.40;40.40
40738;DHT22;54759;48.094;-1.628;2023-02-15T10:39:57;21.90;40.60
40738;DHT22;54759;48.094;-1.628;2023-02-15T10:43:08;21.40;40.30
40738;DHT22;54759;48.094;-1.628;2023-02-15T10:46:17;21.50;40.10
40738;DHT22;54759;48.094;-1.628;2023-02-15T10:49:26;21.50;40.40
40738;DHT22;54759;48.094;-1.628;2023-02-15T10:52:33;22.00;40.60
40738;DHT22;54759;48.094;-1.628;2023-02-15T10:55:45;21.60;40.40
40738;DHT22;54759;48.094;-1.628;2023-02-15T10:58:51;21.90;40.00
40738;DHT22;54759;48.094;-1.628;2023-02-15T11:01:57;21.70;41.10
40738;DHT22;54759;48.094;-1.628;2023-02-15T11:05:02;22.10;40.70
40738;DHT22;54759;48.094;-1.628;2023-02-15T11:08:08;21.70;40.40
40738;DHT22;54759;48.094;-1.628;2023-02-15T11:11:10;22.50;40.90
40738;DHT22;54759;48.094;-1.628;2023-02-15T11:14:14;21.60;40.40
40738;DHT22;54759;48.094;-1.628;2023-02-15T11:17:17;22.10;40.50
40738;DHT22;54759;48.094;-1.628;2023-02-15T11:20:23;21.80;40.50
40738;DHT22;54759;48.094;-1.628;2023-02-15T11:23:26;21.90;40.30
40738;DHT22;54759;48.094;-1.628;2023-02-15T11:26:29;21.70;40.30
40738;DHT22;54759;48.094;-1.628;2023-02-15T11:29:34;21.90;40.40
40738;DHT22;54759;48.094;-1.628;2023-02-15T11:32:39;21.60;40.30
40738;DHT22;54759;48.094;-1.628;2023-02-15T11:35:42;22.20;40.60
40738;DHT22;54759;48.094;-1.628;2023-02-15T11:38:46;21.60;40.20
40738;DHT22;54759;48.094;-1.628;2023-02-15T11:41:50;22.20;40.60
40738;DHT22;54759;48.094;-1.628;2023-02-15T11:44:56;22.00;40.50
40738;DHT22;54759;48.094;-1.628;2023-02-15T11:48:00;22.20;40.40
40738;DHT22;54759;48.094;-1.628;2023-02-15T11:51:02;21.80;40.60
40738;DHT22;54759;48.094;-1.628;2023-02-15T11:54:04;20.70;39.90
40738;DHT22;54759;48.094;-1.628;2023-02-15T11:57:10;21.80;40.60
40738;DHT22;54759;48.094;-1.628;2023-02-15T12:00:14;22.50;40.80
40738;DHT22;54759;48.094;-1.628;2023-02-15T12:03:17;21.80;40.40
40738;DHT22;54759;48.094;-1.628;2023-02-15T12:06:22;22.00;40.70
40738;DHT22;54759;48.094;-1.628;2023-02-15T12:09:28;21.80;40.40
40738;DHT22;54759;48.094;-1.628;2023-02-15T12:12:32;22.10;40.50
40738;DHT22;54759;48.094;-1.628;2023-02-15T12:15:34;21.90;40.60
40738;DHT22;54759;48.094;-1.628;2023-02-15T12:18:37;22.10;41.40
40738;DHT22;54759;48.094;-1.628;2023-02-15T12:21:40;22.00;40.80
40738;DHT22;54759;48.094;-1.628;2023-02-15T12:24:44;22.40;41.00
40738;DHT22;54759;48.094;-1.628;2023-02-15T12:27:46;21.80;40.70
40738;DHT22;54759;48.094;-1.628;2023-02-15T12:30:47;22.60;41.20
40738;DHT22;54759;48.094;-1.628;2023-02-15T12:33:50;21.90;40.60
40738;DHT22;54759;48.094;-1.628;2023-02-15T12:36:57;22.10;40.70
40738;DHT22;54759;48.094;-1.628;2023-02-15T12:40:18;22.10;40.90
40738;DHT22;54759;48.094;-1.628;2023-02-15T12:43:24;22.50;41.20
40738;DHT22;54759;48.094;-1.628;2023-02-15T12:46:26;21.70;40.70
40738;DHT22;54759;48.094;-1.628;2023-02-15T12:49:29;22.50;41.30
40738;DHT22;54759;48.094;-1.628;2023-02-15T12:52:31;21.90;41.10
40738;DHT22;54759;48.094;-1.628;2023-02-15T12:55:33;22.10;38.30
40738;DHT22;54759;48.094;-1.628;2023-02-15T12:58:35;21.70;40.90
40738;DHT22;54759;48.094;-1.628;2023-02-15T13:01:36;22.20;41.10
40738;DHT22;54759;48.094;-1.628;2023-02-15T13:04:38;21.80;40.80
40738;DHT22;54759;48.094;-1.628;2023-02-15T13:07:49;22.10;41.00
40738;DHT22;54759;48.094;-1.628;2023-02-15T13:10:53;22.10;40.90
40738;DHT22;54759;48.094;-1.628;2023-02-15T13:13:55;22.70;41.30
40738;DHT22;54759;48.094;-1.628;2023-02-15T13:16:58;22.10;41.10
40738;DHT22;54759;48.094;-1.628;2023-02-15T13:20:01;22.60;41.50
40738;DHT22;54759;48.094;-1.628;2023-02-15T13:23:04;21.60;40.70
40738;DHT22;54759;48.094;-1.628;2023-02-15T13:26:09;22.30;40.70
40738;DHT22;54759;48.094;-1.628;2023-02-15T13:29:14;21.90;40.80
40738;DHT22;54759;48.094;-1.628;2023-02-15T13:32:22;22.20;41.00
40738;DHT22;54759;48.094;-1.628;2023-02-15T13:35:26;21.90;40.80
40738;DHT22;54759;48.094;-1.628;2023-02-15T13:38:36;22.50;41.30
40738;DHT22;54759;48.094;-1.628;2023-02-15T13:41:47;22.00;40.90
40738;DHT22;54759;48.094;-1.628;2023-02-15T13:45:02;22.60;41.30
40738;DHT22;54759;48.094;-1.628;2023-02-15T13:48:12;22.00;41.00
40738;DHT22;54759;48.094;-1.628;2023-02-15T13:51:19;22.60;41.30
40738;DHT22;54759;48.094;-1.628;2023-02-15T13:54:27;22.20;41.20
40738;DHT22;54759;48.094;-1.628;2023-02-15T13:57:34;22.40;41.00
40738;DHT22;54759;48.094;-1.628;2023-02-15T14:00:42;22.00;41.00
40738;DHT22;54759;48.094;-1.628;2023-02-15T14:07:07;22.00;41.10
40738;DHT22;54759;48.094;-1.628;2023-02-15T14:16:45;22.70;41.40
40738;DHT22;54759;48.094;-1.628;2023-02-15T14:20:07;22.40;41.20
40738;DHT22;54759;48.094;-1.628;2023-02-15T14:23:14;22.80;41.50
40738;DHT22;54759;48.094;-1.628;2023-02-15T14:26:19;22.10;41.10
40738;DHT22;54759;48.094;-1.628;2023-02-15T14:29:24;22.50;41.30
40738;DHT22;54759;48.094;-1.628;2023-02-15T14:32:29;22.20;41.80
40738;DHT22;54759;48.094;-1.628;2023-02-15T14:35:32;22.90;41.60
40738;DHT22;54759;48.094;-1.628;2023-02-15T14:38:38;22.30;41.20
40738;DHT22;54759;48.094;-1.628;2023-02-15T14:41:44;22.80;41.50
40738;DHT22;54759;48.094;-1.628;2023-02-15T14:44:49;22.10;41.10
40738;DHT22;54759;48.094;-1.628;2023-02-15T14:47:55;22.60;41.10
40738;DHT22;54759;48.094;-1.628;2023-02-15T14:50:59;22.50;41.30
40738;DHT22;54759;48.094;-1.628;2023-02-15T14:54:01;22.80;41.60
40738;DHT22;54759;48.094;-1.628;2023-02-15T15:03:30;22.30;41.30
40738;DHT22;54759;48.094;-1.628;2023-02-15T15:06:32;22.90;41.60
40738;DHT22;54759;48.094;-1.628;2023-02-15T15:09:35;22.10;41.30
40738;DHT22;54759;48.094;-1.628;2023-02-15T15:12:39;22.60;41.30
40738;DHT22;54759;48.094;-1.628;2023-02-15T15:15:44;22.20;41.10
40738;DHT22;54759;48.094;-1.628;2023-02-15T15:18:46;22.70;43.10
40738;DHT22;54759;48.094;-1.628;2023-02-15T15:21:52;22.20;41.20
40738;DHT22;54759;48.094;-1.628;2023-02-15T15:24:54;23.00;41.50
40738;DHT22;54759;48.094;-1.628;2023-02-15T15:27:56;22.60;41.50
40738;DHT22;54759;48.094;-1.628;2023-02-15T15:30:57;23.10;41.80
40738;DHT22;54759;48.094;-1.628;2023-02-15T15:40:33;22.60;41.70
40738;DHT22;54759;48.094;-1.628;2023-02-15T15:43:48;22.70;41.40
40738;DHT22;54759;48.094;-1.628;2023-02-15T15:47:08;22.60;41.40
40738;DHT22;54759;48.094;-1.628;2023-02-15T15:50:14;23.20;41.70
40738;DHT22;54759;48.094;-1.628;2023-02-15T15:53:18;22.50;41.30
40738;DHT22;54759;48.094;-1.628;2023-02-15T15:56:21;22.90;41.60
40738;DHT22;54759;48.094;-1.628;2023-02-15T15:59:25;22.50;41.50
40738;DHT22;54759;48.094;-1.628;2023-02-15T16:02:27;23.20;41.90
40738;DHT22;54759;48.094;-1.628;2023-02-15T16:05:34;22.80;41.60
40738;DHT22;54759;48.094;-1.628;2023-02-15T16:08:36;22.90;41.50
40738;DHT22;54759;48.094;-1.628;2023-02-15T16:11:38;22.60;41.50
40738;DHT22;54759;48.094;-1.628;2023-02-15T16:14:40;22.70;41.70
40738;DHT22;54759;48.094;-1.628;2023-02-15T16:17:44;22.80;41.50
40738;DHT22;54759;48.094;-1.628;2023-02-15T16:20:48;23.10;43.40
40738;DHT22;54759;48.094;-1.628;2023-02-15T16:24:01;22.40;41.20
40738;DHT22;54759;48.094;-1.628;2023-02-15T16:27:17;23.30;41.70
40738;DHT22;54759;48.094;-1.628;2023-02-15T16:30:22;22.90;43.20
40738;DHT22;54759;48.094;-1.628;2023-02-15T16:33:33;23.00;41.30
40738;DHT22;54759;48.094;-1.628;2023-02-15T16:36:36;22.80;41.30
40738;DHT22;54759;48.094;-1.628;2023-02-15T16:39:38;23.40;41.90
40738;DHT22;54759;48.094;-1.628;2023-02-15T16:42:42;22.70;41.30
40738;DHT22;54759;48.094;-1.628;2023-02-15T16:45:43;23.20;41.60
40738;DHT22;54759;48.094;-1.628;2023-02-15T16:48:45;22.80;41.10
40738;DHT22;54759;48.094;-1.628;2023-02-15T16:51:53;23.20;41.40
40738;DHT22;54759;48.094;-1.628;2023-02-15T16:54:56;22.70;41.20
40738;DHT22;54759;48.094;-1.628;2023-02-15T16:58:01;23.50;41.80
40738;DHT22;54759;48.094;-1.628;2023-02-15T17:01:05;22.80;41.40
40738;DHT22;54759;48.094;-1.628;2023-02-15T17:04:11;23.60;41.80
40738;DHT22;54759;48.094;-1.628;2023-02-15T17:07:14;23.10;41.50
40738;DHT22;54759;48.094;-1.628;2023-02-15T17:13:33;23.10;41.50
40738;DHT22;54759;48.094;-1.628;2023-02-15T17:16:35;23.20;41.70
40738;DHT22;54759;48.094;-1.628;2023-02-15T17:19:40;23.10;41.60
40738;DHT22;54759;48.094;-1.628;2023-02-15T17:22:43;23.20;41.30
40738;DHT22;54759;48.094;-1.628;2023-02-15T17:25:45;22.80;41.40
40738;DHT22;54759;48.094;-1.628;2023-02-15T17:28:47;23.30;41.50
40738;DHT22;54759;48.094;-1.628;2023-02-15T17:31:50;22.90;41.50
40738;DHT22;54759;48.094;-1.628;2023-02-15T17:35:05;23.40;41.80
40738;DHT22;54759;48.094;-1.628;2023-02-15T17:38:16;23.10;41.50
40738;DHT22;54759;48.094;-1.628;2023-02-15T17:41:18;23.10;41.70
40738;DHT22;54759;48.094;-1.628;2023-02-15T17:44:20;23.00;41.40
40738;DHT22;54759;48.094;-1.628;2023-02-15T17:47:22;23.50;42.10
40738;DHT22;54759;48.094;-1.628;2023-02-15T17:50:26;22.90;41.80
40738;DHT22;54759;48.094;-1.628;2023-02-15T17:53:27;23.30;41.90
40738;DHT22;54759;48.094;-1.628;2023-02-15T17:56:29;22.90;41.80
40738;DHT22;54759;48.094;-1.628;2023-02-15T17:59:30;23.50;42.10
40738;DHT22;54759;48.094;-1.628;2023-02-15T18:02:33;22.80;42.00
40738;DHT22;54759;48.094;-1.628;2023-02-15T18:05:50;23.30;42.10
40738;DHT22;54759;48.094;-1.628;2023-02-15T18:09:03;22.80;42.10
40738;DHT22;54759;48.094;-1.628;2023-02-15T18:12:20;23.50;42.40
40738;DHT22;54759;48.094;-1.628;2023-02-15T18:15:22;23.10;42.20
40738;DHT22;54759;48.094;-1.628;2023-02-15T18:18:24;23.40;42.50
40738;DHT22;54759;48.094;-1.628;2023-02-15T18:21:25;23.00;42.40
40738;DHT22;54759;48.094;-1.628;2023-02-15T18:24:27;23.10;42.40
40738;DHT22;54759;48.094;-1.628;2023-02-15T18:27:28;23.10;42.00
40738;DHT22;54759;48.094;-1.628;2023-02-15T18:30:30;23.00;42.60
40738;DHT22;54759;48.094;-1.628;2023-02-15T18:33:33;22.70;42.40
40738;DHT22;54759;48.094;-1.628;2023-02-15T18:36:36;23.30;42.60
40738;DHT22;54759;48.094;-1.628;2023-02-15T18:39:39;22.70;42.40
40738;DHT22;54759;48.094;-1.628;2023-02-15T18:42:43;23.00;42.60
40738;DHT22;54759;48.094;-1.628;2023-02-15T18:45:48;23.00;42.50
40738;DHT22;54759;48.094;-1.628;2023-02-15T18:48:49;23.30;43.10
40738;DHT22;54759;48.094;-1.628;2023-02-15T18:51:51;22.70;42.80
40738;DHT22;54759;48.094;-1.628;2023-02-15T18:54:54;23.10;42.80
40738;DHT22;54759;48.094;-1.628;2023-02-15T18:57:57;22.80;42.80
40738;DHT22;54759;48.094;-1.628;2023-02-15T19:00:59;22.50;42.80
40738;DHT22;54759;48.094;-1.628;2023-02-15T19:04:00;22.60;43.00
40738;DHT22;54759;48.094;-1.628;2023-02-15T19:07:02;22.80;43.10
40738;DHT22;54759;48.094;-1.628;2023-02-15T19:10:03;22.60;42.80
40738;DHT22;54759;48.094;-1.628;2023-02-15T19:13:08;22.40;42.80
40738;DHT22;54759;48.094;-1.628;2023-02-15T19:16:13;22.90;43.10
40738;DHT22;54759;48.094;-1.628;2023-02-15T19:19:17;23.20;43.30
40738;DHT22;54759;48.094;-1.628;2023-02-15T19:22:19;22.50;43.20
40738;DHT22;54759;48.094;-1.628;2023-02-15T19:25:22;22.90;43.30
40738;DHT22;54759;48.094;-1.628;2023-02-15T19:28:26;22.60;43.10
40738;DHT22;54759;48.094;-1.628;2023-02-15T19:31:29;22.90;42.80
40738;DHT22;54759;48.094;-1.628;2023-02-15T19:34:31;22.30;43.20
40738;DHT22;54759;48.094;-1.628;2023-02-15T19:37:32;22.70;43.40